Time;durP1;ratioP1;P1;durP2;ratioP2;P2;SDS_P1;SDS_P2;PMS_P1;PMS_P2;Temp;Humidity;BMP_temperature;BMP_pressure;BME280_temperature;BME280_humidity;BME280_pressure;Samples;Min_cycle;Max_cycle;Signal;HPM_P1;HPM_P2
2023/03/24 00:02:21;;;;;;;19.08;14.50;;;;;;;9.30;56.95;101322.09;5052513;28;20942;-77
2023/03/24 00:04:48;;;;;;;18.33;14.70;;;;;;;9.28;56.96;101319.59;5051532;28;20463;-76
2023/03/24 00:07:15;;;;;;;22.63;14.30;;;;;;;9.22;57.77;101311.41;5052957;28;20376;-76
2023/03/24 00:09:42;;;;;;;18.48;13.90;;;;;;;9.25;57.61;101317.22;5052146;28;20484;-76
2023/03/24 00:12:09;;;;;;;15.48;12.65;;;;;;;9.20;57.10;101314.22;5052313;28;20412;-76
2023/03/24 00:14:37;;;;;;;16.73;12.32;;;;;;;9.23;57.63;101321.00;5051928;28;20404;-76
2023/03/24 00:17:05;;;;;;;16.70;12.95;;;;;;;9.21;57.11;101315.03;5052072;28;20414;-77
2023/03/24 00:19:32;;;;;;;17.17;13.02;;;;;;;9.18;57.09;101308.22;5036812;28;20382;-77
2023/03/24 00:21:59;;;;;;;18.08;12.82;;;;;;;9.08;57.24;101310.09;5030959;28;20469;-76
2023/03/24 00:24:26;;;;;;;16.58;12.18;;;;;;;9.10;57.26;101306.31;5030491;28;20382;-76
2023/03/24 00:26:51;;;;;;;20.35;13.68;;;;;;;9.07;57.18;101300.47;5032465;28;20398;-76
2023/03/24 00:29:18;;;;;;;16.77;13.35;;;;;;;8.97;57.38;101303.16;5031923;28;20378;-75
2023/03/24 00:31:44;;;;;;;16.42;13.40;;;;;;;9.02;57.83;101308.00;5032046;28;20477;-75
2023/03/24 00:34:11;;;;;;;17.90;13.70;;;;;;;9.11;57.02;101302.69;5031866;28;20497;-77
2023/03/24 00:36:37;;;;;;;16.75;12.95;;;;;;;9.28;56.71;101306.34;5032207;28;20382;-76
2023/03/24 00:39:05;;;;;;;15.60;12.90;;;;;;;9.28;56.03;101298.41;5031492;28;20382;-76
2023/03/24 00:41:30;;;;;;;16.92;13.15;;;;;;;9.26;56.07;101300.38;5032078;28;20378;-76
2023/03/24 00:44:02;;;;;;;16.27;12.20;;;;;;;9.21;56.47;101294.69;5030407;28;20382;-76
2023/03/24 00:46:27;;;;;;;17.60;12.87;;;;;;;9.19;56.25;101294.84;5029863;28;20862;-76
2023/03/24 00:49:00;;;;;;;16.00;11.73;;;;;;;9.35;55.92;101298.69;5028309;28;20390;-76
2023/03/24 00:51:30;;;;;;;16.77;12.48;;;;;;;9.41;55.26;101286.66;5029914;28;20417;-76
2023/03/24 00:53:56;;;;;;;17.30;12.85;;;;;;;9.49;55.00;101278.78;5030173;28;20377;-76
2023/03/24 00:56:26;;;;;;;15.37;11.57;;;;;;;9.56;54.90;101275.44;5030270;28;20404;-77
2023/03/24 00:58:56;;;;;;;16.73;12.68;;;;;;;9.58;54.77;101272.63;5031198;28;20402;-77
2023/03/24 01:01:23;;;;;;;18.70;12.53;;;;;;;9.61;54.91;101272.31;5031491;28;20390;-77
2023/03/24 01:03:49;;;;;;;16.58;12.60;;;;;;;9.56;54.12;101269.28;5031491;28;20378;-77
2023/03/24 01:06:16;;;;;;;21.15;12.82;;;;;;;9.49;54.31;101284.09;5031065;28;20402;-77
2023/03/24 01:08:42;;;;;;;16.27;12.50;;;;;;;9.31;55.43;101273.47;5032083;28;20386;-77
2023/03/24 01:11:09;;;;;;;14.53;12.63;;;;;;;9.20;55.77;101263.94;5031427;28;20382;-77
2023/03/24 01:13:34;;;;;;;16.05;11.80;;;;;;;9.17;55.79;101267.72;5031320;28;20382;-77
2023/03/24 01:16:00;;;;;;;16.30;11.75;;;;;;;9.14;56.18;101264.53;5030163;28;20417;-77
2023/03/24 01:18:26;;;;;;;16.63;12.13;;;;;;;9.08;56.14;101270.41;5031305;28;20389;-77
2023/03/24 01:20:52;;;;;;;15.13;11.82;;;;;;;9.05;55.88;101271.53;5030789;28;20378;-76
2023/03/24 01:23:21;;;;;;;14.85;11.68;;;;;;;9.04;56.11;101264.59;5031554;28;20375;-77
2023/03/24 01:25:48;;;;;;;14.73;11.70;;;;;;;9.06;55.58;101249.41;5032422;28;20379;-77
2023/03/24 01:28:17;;;;;;;15.93;11.70;;;;;;;9.04;55.53;101259.28;5030118;28;20382;-77
2023/03/24 01:30:43;;;;;;;14.98;11.82;;;;;;;9.01;55.77;101242.88;5031003;28;20894;-77
2023/03/24 01:33:09;;;;;;;16.13;11.73;;;;;;;9.01;56.13;101241.06;5030790;28;20421;-76
2023/03/24 01:35:35;;;;;;;13.68;10.95;;;;;;;8.99;55.84;101235.09;5030695;28;20406;-76
2023/03/24 01:38:05;;;;;;;13.88;11.27;;;;;;;9.10;55.16;101240.19;5030028;28;20386;-77
2023/03/24 01:40:34;;;;;;;16.02;11.88;;;;;;;9.16;54.82;101241.41;5030981;28;20379;-77
2023/03/24 01:43:00;;;;;;;14.40;11.68;;;;;;;9.16;54.96;101249.34;5031260;28;20397;-76
2023/03/24 01:45:37;;;;;;;14.93;11.48;;;;;;;9.06;55.10;101244.09;5030972;28;20382;-76
2023/03/24 01:48:14;;;;;;;15.07;11.85;;;;;;;8.87;55.57;101244.19;5030830;28;20375;-76
2023/03/24 01:50:43;;;;;;;16.77;12.10;;;;;;;8.84;55.46;101249.75;5030323;28;20448;-77
2023/03/24 01:53:09;;;;;;;15.98;12.23;;;;;;;8.84;55.71;101244.47;5030790;28;20399;-77
2023/03/24 01:55:36;;;;;;;14.30;11.77;;;;;;;8.96;55.26;101240.66;5030911;28;20414;-76
2023/03/24 01:58:02;;;;;;;15.30;11.70;;;;;;;9.11;54.97;101246.28;5030795;28;20475;-76
2023/03/24 02:00:29;;;;;;;15.40;11.60;;;;;;;9.06;54.48;101249.41;5033813;28;20859;-76
2023/03/24 02:02:58;;;;;;;15.65;12.10;;;;;;;9.02;55.05;101255.97;5034473;28;20392;-76
2023/03/24 02:05:37;;;;;;;14.07;11.00;;;;;;;9.00;54.91;101263.19;5034505;28;20375;-77
2023/03/24 02:08:51;;;;;;;14.00;11.20;;;;;;;8.79;55.01;101258.16;5034694;28;20937;-76
2023/03/24 02:11:18;;;;;;;15.68;11.82;;;;;;;8.60;55.42;101265.13;5012717;28;20861;-77
2023/03/24 02:13:44;;;;;;;15.10;12.20;;;;;;;8.27;56.45;101263.81;5012805;28;20392;-77
2023/03/24 02:16:36;;;;;;;23.05;17.73;;;;;;;8.35;56.31;101260.44;5024582;28;20459;-77
2023/03/24 02:19:13;;;;;;;19.05;13.77;;;;;;;8.24;56.51;101262.25;5034162;28;20821;-77
2023/03/24 02:22:04;;;;;;;19.77;13.90;;;;;;;8.10;56.95;101283.00;5034442;28;20378;-77
2023/03/24 02:25:07;;;;;;;21.45;14.85;;;;;;;8.07;57.33;101272.69;5034265;28;20405;-77
2023/03/24 02:27:41;;;;;;;25.23;16.63;;;;;;;8.07;57.31;101284.13;5034344;28;20516;-77
2023/03/24 02:30:31;;;;;;;29.27;18.25;;;;;;;8.08;57.53;101282.31;5034621;28;20386;-77
2023/03/24 02:33:05;;;;;;;29.27;18.33;;;;;;;8.22;57.04;101287.16;5033747;28;20386;-77
2023/03/24 02:35:37;;;;;;;30.98;17.38;;;;;;;8.17;57.11;101282.28;5034097;28;20414;-77
2023/03/24 02:38:25;;;;;;;29.50;19.37;;;;;;;8.10;57.90;101285.63;5034214;28;20855;-77
2023/03/24 02:41:15;;;;;;;31.02;19.92;;;;;;;8.12;57.74;101292.47;5033907;28;20474;-77
2023/03/24 02:43:55;;;;;;;28.52;19.10;;;;;;;8.07;58.19;101299.09;5034277;28;20392;-77
2023/03/24 02:46:32;;;;;;;28.17;18.63;;;;;;;7.99;58.87;101307.72;5037549;28;20385;-76
2023/03/24 02:49:10;;;;;;;22.30;16.25;;;;;;;7.74;59.49;101307.31;5053529;28;20378;-76
2023/03/24 02:51:41;;;;;;;17.52;13.63;;;;;;;7.70;59.19;101311.16;5053750;28;20469;-76
2023/03/24 02:54:09;;;;;;;17.08;12.57;;;;;;;7.50;59.32;101309.47;5035717;28;20442;-77
2023/03/24 02:56:38;;;;;;;16.70;12.93;;;;;;;7.57;59.10;101305.31;5034721;28;20382;-77
2023/03/24 02:59:09;;;;;;;19.92;14.30;;;;;;;7.68;58.58;101304.38;5034454;28;20410;-76
2023/03/24 03:01:42;;;;;;;24.15;16.15;;;;;;;7.74;58.57;101296.75;5037286;28;20418;-77
2023/03/24 03:04:17;;;;;;;20.58;14.77;;;;;;;7.71;58.58;101297.00;5050457;28;20376;-77
2023/03/24 03:06:48;;;;;;;22.25;15.77;;;;;;;7.78;58.68;101289.38;5036159;28;20406;-77
2023/03/24 03:09:16;;;;;;;19.83;14.90;;;;;;;7.81;58.82;101287.31;5044288;28;20394;-77
2023/03/24 03:11:48;;;;;;;16.75;13.45;;;;;;;7.82;58.70;101293.41;5044055;28;21043;-77
2023/03/24 03:14:22;;;;;;;17.48;13.52;;;;;;;7.81;58.80;101287.31;5047587;28;20410;-77
2023/03/24 03:16:58;;;;;;;16.27;12.98;;;;;;;7.75;59.35;101284.38;5050693;28;20737;-77
2023/03/24 03:19:42;;;;;;;16.80;13.40;;;;;;;7.72;59.50;101282.00;5042347;28;20457;-77
2023/03/24 03:22:15;;;;;;;18.27;13.65;;;;;;;7.66;60.07;101278.94;5053437;28;20389;-77
2023/03/24 03:24:49;;;;;;;16.80;13.20;;;;;;;7.62;60.28;101267.00;5049234;28;20382;-76
2023/03/24 03:27:28;;;;;;;18.70;13.43;;;;;;;7.64;60.52;101265.06;5033805;28;20739;-76
2023/03/24 03:29:59;;;;;;;17.65;13.55;;;;;;;7.72;60.15;101266.19;5041995;28;20796;-76
2023/03/24 03:32:33;;;;;;;18.95;13.75;;;;;;;7.80;60.42;101266.34;5046176;28;20398;-76
2023/03/24 03:35:07;;;;;;;18.35;12.77;;;;;;;7.76;60.33;101267.56;5034540;28;20925;-76
2023/03/24 03:37:37;;;;;;;21.02;15.15;;;;;;;7.75;60.20;101269.38;5047915;28;20390;-77
2023/03/24 03:40:09;;;;;;;19.77;15.35;;;;;;;7.78;60.52;101279.66;5038930;28;20970;-76
2023/03/24 03:42:35;;;;;;;21.77;15.77;;;;;;;7.71;61.07;101280.34;5048255;28;20488;-76
2023/03/24 03:45:01;;;;;;;20.83;15.23;;;;;;;7.69;61.28;101283.13;5040560;28;20961;-76
2023/03/24 03:47:27;;;;;;;19.67;13.80;;;;;;;7.71;61.27;101283.00;5048632;28;20384;-76
2023/03/24 03:49:52;;;;;;;20.50;14.80;;;;;;;7.91;60.72;101291.75;5032623;28;20870;-77
2023/03/24 03:52:19;;;;;;;17.67;14.07;;;;;;;7.98;59.96;101290.22;5047619;28;20505;-77
2023/03/24 03:54:46;;;;;;;17.30;13.55;;;;;;;8.14;59.47;101289.66;5033380;28;20921;-77
2023/03/24 03:57:12;;;;;;;16.17;13.37;;;;;;;8.23;58.36;101283.56;5048108;28;20903;-77
2023/03/24 03:59:39;;;;;;;20.10;14.05;;;;;;;8.32;57.97;101290.63;5043447;28;20397;-77
2023/03/24 04:02:20;;;;;;;17.48;12.80;;;;;;;8.24;57.60;101287.84;5067952;28;20381;-77
2023/03/24 04:05:13;;;;;;;17.60;12.65;;;;;;;8.09;57.70;101289.25;5037472;28;20382;-77
2023/03/24 04:07:56;;;;;;;17.58;13.07;;;;;;;8.11;57.76;101298.69;5044749;28;20474;-77
2023/03/24 04:10:42;;;;;;;17.85;12.93;;;;;;;8.09;57.57;101290.09;5037619;28;20390;-77
2023/03/24 04:13:34;;;;;;;17.85;13.43;;;;;;;8.15;57.68;101291.34;5043566;28;20399;-77
2023/03/24 04:16:40;;;;;;;18.75;12.95;;;;;;;8.25;56.71;101297.44;5040280;28;20424;-77
2023/03/24 04:19:38;;;;;;;16.25;13.15;;;;;;;8.30;56.63;101299.66;5044147;28;20427;-77
2023/03/24 04:22:12;;;;;;;18.35;12.52;;;;;;;8.24;56.58;101285.19;5022630;28;20445;-77
2023/03/24 04:24:53;;;;;;;19.63;12.57;;;;;;;8.24;56.00;101304.53;5041023;28;20409;-76
2023/03/24 04:27:45;;;;;;;16.10;12.48;;;;;;;8.20;56.05;101299.66;5041828;28;20418;-77
2023/03/24 04:30:25;;;;;;;20.08;14.73;;;;;;;8.11;56.21;101292.59;5044070;28;20403;-76
2023/03/24 04:32:58;;;;;;;19.42;13.90;;;;;;;8.04;56.78;101300.22;5043171;28;20377;-76
2023/03/24 04:35:34;;;;;;;19.23;13.93;;;;;;;7.93;56.79;101298.56;5047935;28;20401;-76
2023/03/24 04:38:04;;;;;;;20.38;14.00;;;;;;;7.77;57.22;101298.28;5052034;28;20389;-75
2023/03/24 04:40:35;;;;;;;20.30;13.82;;;;;;;7.74;57.23;101309.09;5051895;28;20385;-75
2023/03/24 04:43:04;;;;;;;29.63;18.88;;;;;;;7.62;57.29;101311.03;5047744;28;20394;-75
2023/03/24 04:45:32;;;;;;;22.52;15.95;;;;;;;7.41;57.98;101311.94;5049116;28;20392;-76
2023/03/24 04:48:02;;;;;;;38.03;25.70;;;;;;;7.27;58.53;101313.16;5051132;28;20816;-77
2023/03/24 04:50:29;;;;;;;26.63;17.50;;;;;;;7.34;58.29;101320.53;5068876;28;20429;-77
2023/03/24 04:52:55;;;;;;;21.98;16.58;;;;;;;7.39;58.26;101315.69;5069570;28;20875;-77
2023/03/24 04:55:23;;;;;;;24.17;16.13;;;;;;;7.47;58.03;101319.31;5063756;28;20414;-78
2023/03/24 04:57:49;;;;;;;22.57;15.83;;;;;;;7.57;57.99;101316.69;5060425;28;20882;-76
2023/03/24 05:00:15;;;;;;;20.43;14.90;;;;;;;7.71;57.53;101320.75;5057171;28;20384;-77
2023/03/24 05:02:43;;;;;;;19.80;14.85;;;;;;;7.84;57.03;101326.59;5058682;28;20404;-76
2023/03/24 05:05:09;;;;;;;19.67;14.23;;;;;;;8.01;56.82;101329.53;5055813;28;20381;-75
2023/03/24 05:07:35;;;;;;;22.45;14.43;;;;;;;8.03;56.68;101330.22;5057333;28;20379;-76
2023/03/24 05:10:00;;;;;;;21.23;15.27;;;;;;;8.12;56.75;101323.28;5057260;28;20422;-75
2023/03/24 05:12:26;;;;;;;19.92;14.93;;;;;;;8.17;56.89;101321.91;5058254;28;20420;-75
2023/03/24 05:14:51;;;;;;;19.20;14.70;;;;;;;8.17;56.55;101318.44;5059295;28;20435;-75
2023/03/24 05:17:17;;;;;;;25.13;17.20;;;;;;;8.08;57.08;101322.72;5048557;28;20408;-76
2023/03/24 05:19:42;;;;;;;22.10;16.45;;;;;;;8.06;57.42;101327.31;5059231;28;20470;-76
2023/03/24 05:22:08;;;;;;;21.97;15.53;;;;;;;8.14;57.60;101326.63;5045247;28;20856;-76
2023/03/24 05:24:33;;;;;;;42.83;38.20;;;;;;;8.32;57.24;101329.41;5039858;28;20479;-76
2023/03/24 05:26:59;;;;;;;47.30;32.97;;;;;;;8.45;56.75;101329.16;5041025;28;20389;-77
2023/03/24 05:29:25;;;;;;;46.77;32.83;;;;;;;8.61;56.77;101335.53;5041008;28;20843;-77
2023/03/24 05:31:51;;;;;;;41.05;31.92;;;;;;;8.78;56.36;101320.72;5050065;28;20829;-75
2023/03/24 05:34:16;;;;;;;36.60;26.70;;;;;;;8.97;56.15;101324.31;5052030;28;20490;-77
2023/03/24 05:36:42;;;;;;;42.33;31.77;;;;;;;9.04;56.02;101316.63;5055347;28;20716;-76
2023/03/24 05:39:07;;;;;;;38.23;24.77;;;;;;;9.16;56.50;101321.59;5055003;28;20459;-76
2023/03/24 05:41:33;;;;;;;36.00;23.15;;;;;;;9.33;56.84;101317.34;5054873;28;20373;-78
2023/03/24 05:43:58;;;;;;;33.57;22.20;;;;;;;9.50;56.76;101323.66;5060222;28;20377;-77
2023/03/24 05:46:24;;;;;;;28.17;19.73;;;;;;;9.60;56.47;101328.91;5077320;28;20467;-77
2023/03/24 05:48:50;;;;;;;29.63;19.33;;;;;;;9.70;56.77;101329.66;5074451;28;20471;-77
2023/03/24 05:51:16;;;;;;;32.60;19.20;;;;;;;9.88;56.46;101334.16;5061556;28;20474;-77
2023/03/24 05:53:41;;;;;;;27.73;18.40;;;;;;;9.97;57.06;101341.19;5054003;28;20384;-76
2023/03/24 05:56:10;;;;;;;28.00;18.30;;;;;;;10.08;57.03;101340.13;5053501;28;20772;-77
2023/03/24 05:58:38;;;;;;;25.73;18.27;;;;;;;10.18;56.37;101332.94;5053889;28;20864;-77
2023/03/24 06:01:10;;;;;;;23.30;17.42;;;;;;;10.32;56.60;101339.56;5055653;28;20369;-77
2023/03/24 06:03:37;;;;;;;23.23;17.10;;;;;;;10.48;56.47;101342.34;5054870;28;20372;-76
2023/03/24 06:06:07;;;;;;;23.85;17.08;;;;;;;10.54;56.50;101342.72;5054930;28;20522;-77
2023/03/24 06:08:34;;;;;;;22.73;16.30;;;;;;;10.63;56.11;101339.97;5055012;28;20427;-76
2023/03/24 06:11:03;;;;;;;22.35;16.05;;;;;;;10.65;55.88;101342.47;5054833;28;20373;-76
2023/03/24 06:13:30;;;;;;;25.88;17.13;;;;;;;10.63;55.85;101341.78;5054457;28;20975;-76
2023/03/24 06:15:57;;;;;;;25.65;17.17;;;;;;;10.73;55.80;101342.50;5054773;28;20400;-76
2023/03/24 06:18:25;;;;;;;23.10;17.67;;;;;;;10.87;55.68;101344.59;5055153;28;20412;-77
2023/03/24 06:20:55;;;;;;;23.08;16.83;;;;;;;11.00;55.21;101354.81;5054785;28;20391;-78
2023/03/24 06:23:24;;;;;;;20.80;15.55;;;;;;;11.10;55.22;101352.84;5053821;28;20403;-76
2023/03/24 06:25:51;;;;;;;24.35;16.88;;;;;;;11.06;54.69;101354.16;5054780;28;20853;-77
2023/03/24 06:28:16;;;;;;;24.95;16.17;;;;;;;10.96;54.76;101355.25;5054856;28;20438;-77
2023/03/24 06:30:43;;;;;;;25.43;16.73;;;;;;;10.90;54.87;101362.03;5055107;28;20377;-76
2023/03/24 06:33:10;;;;;;;22.25;16.40;;;;;;;11.10;54.92;101355.50;5055256;28;20377;-77
2023/03/24 06:35:35;;;;;;;21.65;15.48;;;;;;;11.31;54.58;101345.47;5054797;28;20456;-77
2023/03/24 06:38:01;;;;;;;25.38;16.15;;;;;;;11.44;54.37;101345.88;5054469;28;20372;-77
2023/03/24 06:40:27;;;;;;;23.73;16.05;;;;;;;11.50;54.00;101339.09;5054523;28;20738;-78
2023/03/24 06:42:52;;;;;;;27.03;16.67;;;;;;;11.49;54.17;101343.59;5054818;28;20372;-76
2023/03/24 06:45:18;;;;;;;24.10;15.77;;;;;;;11.54;53.96;101346.59;5054514;28;20383;-78
2023/03/24 06:47:43;;;;;;;23.75;15.88;;;;;;;11.66;53.67;101342.63;5054795;28;20806;-77
2023/03/24 06:50:09;;;;;;;27.23;16.57;;;;;;;11.84;53.63;101333.72;5054017;28;20798;-77
2023/03/24 06:52:35;;;;;;;30.05;17.30;;;;;;;12.02;53.27;101337.09;5054799;28;20400;-76
2023/03/24 06:55:01;;;;;;;24.83;17.38;;;;;;;12.11;53.22;101337.09;5054730;28;20401;-76
2023/03/24 06:57:27;;;;;;;24.02;17.17;;;;;;;12.25;52.96;101336.47;5054791;28;20384;-77
2023/03/24 06:59:53;;;;;;;32.67;18.38;;;;;;;12.35;52.80;101336.28;5054803;28;20380;-77
2023/03/24 07:02:19;;;;;;;25.67;17.45;;;;;;;12.40;52.94;101331.28;5054279;28;20381;-77
2023/03/24 07:04:45;;;;;;;21.30;16.33;;;;;;;12.58;53.13;101329.28;5056870;28;20445;-77
2023/03/24 07:07:11;;;;;;;24.90;17.20;;;;;;;12.73;52.77;101331.25;5054542;28;20470;-77
2023/03/24 07:09:37;;;;;;;21.63;15.82;;;;;;;12.76;52.77;101330.94;5053820;28;20837;-76
2023/03/24 07:12:04;;;;;;;23.48;16.80;;;;;;;12.90;52.88;101329.41;5054213;28;20377;-76
2023/03/24 07:14:30;;;;;;;21.60;16.63;;;;;;;13.00;52.55;101327.41;5053951;28;20737;-77
2023/03/24 07:16:55;;;;;;;25.83;17.50;;;;;;;13.11;52.21;101337.66;5053492;28;20861;-78
2023/03/24 07:19:21;;;;;;;22.15;17.02;;;;;;;13.29;51.85;101342.75;5053983;28;20385;-76
2023/03/24 07:21:49;;;;;;;26.33;17.67;;;;;;;13.38;51.90;101335.59;5055295;28;20381;-77
2023/03/24 07:24:17;;;;;;;24.00;17.33;;;;;;;13.52;51.44;101334.03;5054208;28;20842;-76
2023/03/24 07:26:43;;;;;;;24.35;17.20;;;;;;;13.58;51.20;101326.19;5051792;28;20385;-77
2023/03/24 07:29:09;;;;;;;25.30;18.05;;;;;;;13.73;51.29;101330.75;5041428;28;20376;-76
2023/03/24 07:31:36;;;;;;;25.55;18.27;;;;;;;13.81;51.22;101332.53;5043429;28;20387;-76
2023/03/24 07:34:06;;;;;;;24.85;18.65;;;;;;;13.88;51.15;101337.00;5042713;28;20379;-77
2023/03/24 07:36:31;;;;;;;26.52;19.17;;;;;;;13.94;51.25;101324.81;5041542;28;20428;-77
2023/03/24 07:38:57;;;;;;;20.17;17.15;;;;;;;14.03;50.97;101329.06;5040561;28;20398;-76
2023/03/24 07:41:26;;;;;;;26.43;19.80;;;;;;;14.18;51.02;101337.13;5049416;28;20471;-76
2023/03/24 07:43:52;;;;;;;24.23;17.85;;;;;;;14.23;50.61;101337.41;5038002;28;20374;-77
2023/03/24 07:46:17;;;;;;;27.93;18.80;;;;;;;14.28;50.44;101335.06;5034887;28;20395;-77
2023/03/24 07:48:43;;;;;;;22.55;18.00;;;;;;;14.22;50.78;101332.25;5037371;28;20410;-75
2023/03/24 07:51:08;;;;;;;22.70;17.50;;;;;;;14.38;50.55;101337.47;5040898;28;20478;-76
2023/03/24 07:53:33;;;;;;;21.27;16.98;;;;;;;14.37;50.72;101330.47;5040598;28;20395;-76
2023/03/24 07:55:59;;;;;;;20.87;17.37;;;;;;;14.61;50.24;101329.44;5033955;28;20421;-76
2023/03/24 07:58:25;;;;;;;22.27;17.13;;;;;;;14.62;49.94;101324.94;5040252;28;20392;-77
2023/03/24 08:00:50;;;;;;;21.75;17.38;;;;;;;14.67;50.18;101326.03;5040876;28;20410;-76
2023/03/24 08:03:16;;;;;;;21.23;17.57;;;;;;;14.70;50.24;101319.53;5043779;28;20393;-77
2023/03/24 08:05:43;;;;;;;23.60;19.55;;;;;;;14.91;50.10;101322.31;5041531;28;20459;-77
2023/03/24 08:08:08;;;;;;;22.07;17.53;;;;;;;14.90;50.21;101317.16;5043004;28;20401;-77
2023/03/24 08:10:34;;;;;;;22.23;18.00;;;;;;;14.99;49.88;101318.72;5041166;28;20397;-77
2023/03/24 08:13:00;;;;;;;21.67;17.38;;;;;;;15.06;49.66;101313.47;5045654;28;20413;-76
2023/03/24 08:15:27;;;;;;;21.90;18.40;;;;;;;15.18;49.80;101313.81;5042382;28;20413;-76
2023/03/24 08:17:55;;;;;;;21.23;17.55;;;;;;;15.25;49.52;101307.56;5042408;28;20387;-75
2023/03/24 08:20:23;;;;;;;22.55;17.75;;;;;;;15.30;49.55;101304.31;5039287;28;20392;-75
2023/03/24 08:22:49;;;;;;;21.42;18.10;;;;;;;15.35;49.60;101301.09;5038253;28;20406;-76
2023/03/24 08:25:17;;;;;;;20.95;17.75;;;;;;;15.46;49.52;101300.59;5039597;28;20387;-76
2023/03/24 08:27:43;;;;;;;21.98;18.40;;;;;;;15.45;49.39;101290.97;5039945;28;20855;-77
2023/03/24 08:30:13;;;;;;;24.48;18.45;;;;;;;15.59;49.17;101291.91;5041339;28;20404;-78
2023/03/24 08:32:52;;;;;;;24.63;19.00;;;;;;;15.66;49.21;101298.16;5046459;28;20383;-76
2023/03/24 08:35:22;;;;;;;23.00;17.73;;;;;;;15.65;49.11;101292.00;5048502;28;20422;-77
2023/03/24 08:37:48;;;;;;;24.60;19.00;;;;;;;15.79;49.12;101293.00;5039805;28;20459;-77
2023/03/24 08:40:19;;;;;;;23.80;18.33;;;;;;;15.82;48.88;101281.91;5048822;28;20793;-76
2023/03/24 08:42:50;;;;;;;21.95;17.75;;;;;;;15.90;48.66;101283.66;5040687;28;20381;-76
2023/03/24 08:45:22;;;;;;;22.55;17.48;;;;;;;15.92;48.82;101286.94;5039107;28;20421;-76
2023/03/24 08:47:49;;;;;;;23.40;18.33;;;;;;;15.96;48.67;101280.19;5039117;28;20816;-76
2023/03/24 08:50:15;;;;;;;22.30;17.73;;;;;;;16.02;48.46;101271.38;5045341;28;20837;-76
2023/03/24 08:52:40;;;;;;;21.53;16.93;;;;;;;16.17;48.37;101278.50;5039096;28;20421;-76
2023/03/24 08:55:08;;;;;;;24.17;18.23;;;;;;;16.20;48.05;101268.25;5039274;28;20410;-76
2023/03/24 08:57:35;;;;;;;22.08;18.02;;;;;;;16.20;48.25;101262.91;5044236;28;20929;-75
2023/03/24 09:00:00;;;;;;;22.13;18.30;;;;;;;16.27;48.27;101265.63;5042368;28;20410;-76
2023/03/24 09:02:26;;;;;;;23.42;18.02;;;;;;;16.35;48.35;101268.19;5051345;28;20392;-75
2023/03/24 09:04:54;;;;;;;21.00;17.50;;;;;;;16.44;47.89;101267.00;5056919;28;20393;-75
2023/03/24 09:07:20;;;;;;;20.98;17.33;;;;;;;16.40;47.76;101262.22;5049817;28;20434;-75
2023/03/24 09:09:45;;;;;;;22.40;17.10;;;;;;;16.43;47.75;101261.84;5035571;28;20865;-76
2023/03/24 09:12:11;;;;;;;15.63;13.97;;;;;;;16.48;47.49;101255.91;5037921;28;20399;-76
2023/03/24 09:14:36;;;;;;;14.60;11.85;;;;;;;16.51;47.16;101248.34;5041161;28;20412;-76
2023/03/24 09:17:02;;;;;;;18.47;14.03;;;;;;;16.67;46.66;101251.69;5041804;28;20392;-77
2023/03/24 09:19:27;;;;;;;16.93;14.07;;;;;;;16.74;46.36;101247.22;5040973;28;20382;-77
2023/03/24 09:21:53;;;;;;;18.57;14.60;;;;;;;16.74;46.51;101245.34;5039330;28;20933;-75
2023/03/24 09:24:19;;;;;;;16.60;14.43;;;;;;;16.73;46.36;101242.91;5041087;28;20718;-76
2023/03/24 09:26:44;;;;;;;17.30;13.13;;;;;;;16.82;45.98;101237.16;5039330;28;20390;-75
2023/03/24 09:29:10;;;;;;;14.90;11.38;;;;;;;16.94;45.03;101250.88;5041451;28;20458;-76
2023/03/24 09:31:36;;;;;;;16.10;13.48;;;;;;;17.02;45.17;101247.19;5040462;28;20839;-76
2023/03/24 09:34:02;;;;;;;17.60;13.47;;;;;;;17.13;45.04;101227.84;5038290;28;20485;-76
2023/03/24 09:36:28;;;;;;;17.10;12.53;;;;;;;17.24;44.40;101234.47;5047151;28;20792;-76
2023/03/24 09:38:53;;;;;;;17.10;13.23;;;;;;;17.28;43.98;101233.03;5051825;28;20392;-76
2023/03/24 09:41:26;;;;;;;16.73;13.93;;;;;;;17.35;44.78;101222.34;5051594;28;20887;-76
2023/03/24 09:44:10;;;;;;;16.73;13.15;;;;;;;17.50;44.70;101222.16;5052756;28;20385;-75
2023/03/24 09:46:43;;;;;;;17.48;12.70;;;;;;;17.64;44.69;101223.84;5050583;28;20396;-76
2023/03/24 09:49:15;;;;;;;16.77;12.82;;;;;;;17.66;44.58;101218.28;5051552;28;20479;-75
2023/03/24 09:51:43;;;;;;;18.08;13.93;;;;;;;17.80;44.15;101217.25;5038824;28;20433;-77
2023/03/24 09:54:28;;;;;;;17.63;13.73;;;;;;;17.88;43.90;101214.41;5039407;28;20427;-75
2023/03/24 09:56:56;;;;;;;17.05;13.32;;;;;;;17.98;44.10;101219.38;5031296;28;20456;-76
2023/03/24 09:59:38;;;;;;;15.68;12.75;;;;;;;18.03;43.67;101216.88;5032393;28;20382;-76
2023/03/24 10:02:17;;;;;;;14.00;12.48;;;;;;;18.09;43.61;101223.28;5031874;28;20379;-77
2023/03/24 10:04:43;;;;;;;14.20;11.82;;;;;;;18.11;43.64;101214.00;5032691;28;20379;-77
2023/03/24 10:07:21;;;;;;;17.40;12.80;;;;;;;18.17;43.74;101217.72;5048230;28;20412;-76
2023/03/24 10:10:14;;;;;;;20.25;12.95;;;;;;;18.25;43.57;101212.13;5032512;28;20496;-76
2023/03/24 10:12:47;;;;;;;12.85;10.85;;;;;;;18.29;44.72;101215.22;5031612;28;20395;-77
2023/03/24 10:15:27;;;;;;;16.30;12.73;;;;;;;18.25;43.71;101212.13;5032166;28;20505;-77
2023/03/24 10:18:11;;;;;;;16.38;13.15;;;;;;;18.33;43.89;101208.41;5032070;28;20400;-76
2023/03/24 10:20:41;;;;;;;13.93;11.20;;;;;;;18.44;43.59;101204.22;5033548;28;20378;-76
2023/03/24 10:23:47;;;;;;;14.75;10.95;;;;;;;18.49;42.80;101204.44;5035612;28;20451;-77
2023/03/24 10:26:40;;;;;;;13.00;10.85;;;;;;;18.49;42.49;101196.38;5035548;28;20374;-77
2023/03/24 10:29:16;;;;;;;16.58;12.15;;;;;;;18.54;42.39;101200.06;5035096;28;20382;-77
2023/03/24 10:31:46;;;;;;;13.57;10.00;;;;;;;18.64;41.93;101194.28;5035440;28;20393;-75
2023/03/24 10:34:13;;;;;;;13.07;10.57;;;;;;;18.62;42.03;101193.66;5034569;28;20425;-76
2023/03/24 10:36:40;;;;;;;14.32;11.52;;;;;;;18.65;41.85;101182.47;5036087;28;21137;-77
2023/03/24 10:39:13;;;;;;;13.07;10.57;;;;;;;18.73;41.77;101184.94;5035203;28;20847;-76
2023/03/24 10:41:41;;;;;;;14.63;11.30;;;;;;;18.79;41.71;101190.50;5034162;28;20755;-77
2023/03/24 10:44:07;;;;;;;12.57;10.15;;;;;;;18.89;41.85;101181.00;5034872;28;20414;-77
2023/03/24 10:46:36;;;;;;;15.18;10.70;;;;;;;18.81;41.58;101178.53;5035290;28;20874;-77
2023/03/24 10:49:10;;;;;;;11.85;10.30;;;;;;;18.87;41.77;101169.63;5036244;28;20445;-76
2023/03/24 10:51:37;;;;;;;13.82;10.80;;;;;;;19.11;41.65;101177.97;5040463;28;20418;-75
2023/03/24 10:54:14;;;;;;;11.90;10.60;;;;;;;19.16;41.28;101162.03;5038332;28;20410;-76
2023/03/24 10:56:42;;;;;;;13.73;10.18;;;;;;;19.07;40.95;101161.47;5036219;28;20397;-75
2023/03/24 10:59:24;;;;;;;12.73;10.20;;;;;;;19.06;40.80;101159.81;5035523;28;20382;-77
2023/03/24 11:02:09;;;;;;;11.07;8.60;;;;;;;19.18;40.44;101161.84;5035126;28;20387;-75
2023/03/24 11:04:40;;;;;;;13.27;8.93;;;;;;;19.21;40.47;101153.31;5037201;28;20390;-75
2023/03/24 11:07:20;;;;;;;10.98;8.88;;;;;;;19.11;40.34;101145.75;5042412;28;20743;-76
2023/03/24 11:10:14;;;;;;;11.98;8.27;;;;;;;19.20;40.32;101139.06;5042497;28;20453;-76
2023/03/24 11:12:42;;;;;;;10.43;7.18;;;;;;;19.16;39.26;101128.94;5040440;28;20426;-76
2023/03/24 11:15:21;;;;;;;10.02;6.88;;;;;;;19.33;38.67;101137.34;5038317;28;20735;-77
2023/03/24 11:17:55;;;;;;;6.80;6.10;;;;;;;19.39;38.25;101126.53;5041987;28;20383;-76
2023/03/24 11:20:31;;;;;;;8.68;6.47;;;;;;;19.45;37.95;101120.28;5040967;28;20403;-76
2023/03/24 11:23:09;;;;;;;8.60;6.35;;;;;;;19.49;38.44;101112.59;5040444;28;20868;-76
2023/03/24 11:25:37;;;;;;;7.10;6.00;;;;;;;19.52;38.56;101104.09;5037127;28;20476;-76
2023/03/24 11:28:20;;;;;;;8.90;6.55;;;;;;;19.46;37.92;101097.72;5038237;28;20387;-76
2023/03/24 11:30:53;;;;;;;7.63;6.07;;;;;;;19.51;37.81;101094.38;5041805;28;20370;-76